createdAt,value
2023-04-04T00:02:19.838Z,9.03
2023-04-04T00:04:48.320Z,9.12
2023-04-04T00:07:18.079Z,9.10
2023-04-04T00:09:46.327Z,9.59
2023-04-04T00:12:15.219Z,9.17
2023-04-04T00:14:43.558Z,9.13
2023-04-04T00:17:11.829Z,9.67
2023-04-04T00:19:40.141Z,9.04
2023-04-04T00:22:08.491Z,8.96
2023-04-04T00:24:38.473Z,8.97
2023-04-04T00:27:06.798Z,9.12
2023-04-04T00:29:35.354Z,9.16
2023-04-04T00:32:03.807Z,9.10
2023-04-04T00:34:32.109Z,9.14
2023-04-04T00:37:00.360Z,9.44
2023-04-04T00:39:28.652Z,8.97
2023-04-04T00:41:58.410Z,9.16
2023-04-04T00:44:26.761Z,9.04
2023-04-04T00:46:55.134Z,8.92
2023-04-04T00:49:23.451Z,9.39
2023-04-04T00:51:51.845Z,9.52
2023-04-04T00:54:20.179Z,9.39
2023-04-04T00:56:48.659Z,9.50
2023-04-04T00:59:18.424Z,9.45
2023-04-04T01:01:46.997Z,9.44
2023-04-04T01:04:15.592Z,9.43
2023-04-04T01:06:44.179Z,9.36
2023-04-04T01:09:12.945Z,9.22
2023-04-04T01:11:41.462Z,9.36
2023-04-04T01:14:09.742Z,9.32
2023-04-04T01:16:39.815Z,9.06
2023-04-04T01:19:10.881Z,9.10
2023-04-04T01:21:39.992Z,8.96
2023-04-04T01:24:09.696Z,9.14
2023-04-04T01:26:39.566Z,8.92
2023-04-04T01:29:07.893Z,8.97
2023-04-04T01:31:38.954Z,8.74
2023-04-04T01:34:13.092Z,8.92
2023-04-04T01:36:44.752Z,8.97
2023-04-04T01:39:21.525Z,8.75
2023-04-04T01:41:51.699Z,8.98
2023-04-04T01:44:20.117Z,8.81
2023-04-04T01:46:48.442Z,8.56
2023-04-04T01:49:16.802Z,8.39
2023-04-04T01:51:46.510Z,8.69
2023-04-04T01:54:15.060Z,8.39
2023-04-04T01:56:43.447Z,8.68
2023-04-04T01:59:13.286Z,8.72
2023-04-04T02:01:41.771Z,8.57
2023-04-04T02:04:12.540Z,8.27
2023-04-04T02:06:41.516Z,8.43
2023-04-04T02:09:09.921Z,8.59
2023-04-04T02:11:39.103Z,8.24
2023-04-04T02:14:07.467Z,8.50
2023-04-04T02:16:37.465Z,8.45
2023-04-04T02:19:05.734Z,7.84
2023-04-04T02:21:34.028Z,8.10
2023-04-04T02:24:02.388Z,8.17
2023-04-04T02:26:30.711Z,8.02
2023-04-04T02:28:59.014Z,8.35
2023-04-04T02:31:27.536Z,7.80
2023-04-04T02:33:57.686Z,8.22
2023-04-04T02:36:26.014Z,8.25
2023-04-04T02:38:54.402Z,7.85
2023-04-04T02:41:23.356Z,8.07
2023-04-04T02:43:51.689Z,8.19
2023-04-04T02:46:21.972Z,8.07
2023-04-04T02:48:50.547Z,8.17
2023-04-04T02:51:20.169Z,8.00
2023-04-04T02:53:48.495Z,7.92
2023-04-04T02:56:16.919Z,7.83
2023-04-04T02:58:45.649Z,7.77
2023-04-04T03:01:14.077Z,7.78
2023-04-04T03:03:42.510Z,7.62
2023-04-04T03:06:11.531Z,7.73
2023-04-04T03:08:41.398Z,7.74
2023-04-04T03:11:09.703Z,7.81
2023-04-04T03:13:38.474Z,7.91
2023-04-04T03:16:07.677Z,7.88
2023-04-04T03:18:36.016Z,7.80
2023-04-04T03:21:04.344Z,7.70
2023-04-04T03:23:32.768Z,7.86
2023-04-04T03:26:02.616Z,7.94
2023-04-04T03:28:31.170Z,7.97
2023-04-04T03:31:04.693Z,7.77
2023-04-04T03:33:33.935Z,7.78
2023-04-04T03:36:02.262Z,7.58
2023-04-04T03:38:30.668Z,7.71
2023-04-04T03:41:07.389Z,7.69
2023-04-04T03:43:36.060Z,7.57
2023-04-04T03:46:05.124Z,7.37
2023-04-04T03:48:33.671Z,7.51
2023-04-04T03:51:04.468Z,7.81
2023-04-04T03:53:33.127Z,7.81
2023-04-04T03:56:01.551Z,7.59
2023-04-04T03:58:31.445Z,7.66
2023-04-04T04:00:59.726Z,8.01
2023-04-04T04:03:28.182Z,7.99
2023-04-04T04:05:56.710Z,8.06
2023-04-04T04:08:25.361Z,7.78
2023-04-04T04:10:54.566Z,7.73
2023-04-04T04:13:23.021Z,7.94
2023-04-04T04:15:52.803Z,7.78
2023-04-04T04:18:21.325Z,7.87
2023-04-04T04:20:49.752Z,7.90
2023-04-04T04:23:17.994Z,7.76
2023-04-04T04:25:49.026Z,7.85
2023-04-04T04:28:17.624Z,7.87
2023-04-04T04:30:46.299Z,7.82
2023-04-04T04:33:15.977Z,8.00
2023-04-04T04:35:44.353Z,8.03
2023-04-04T04:38:12.718Z,8.02
2023-04-04T04:40:41.294Z,7.59
2023-04-04T04:43:09.833Z,8.05
2023-04-04T04:45:38.318Z,8.06
2023-04-04T04:48:07.182Z,7.79
2023-04-04T04:50:37.133Z,7.73
2023-04-04T04:53:05.415Z,7.88
2023-04-04T04:55:33.656Z,7.52
2023-04-04T04:58:02.053Z,7.31
2023-04-04T05:00:30.352Z,7.47
2023-04-04T05:03:00.427Z,7.01
2023-04-04T05:05:28.983Z,6.77
2023-04-04T05:07:58.590Z,6.80
2023-04-04T05:10:26.824Z,7.49
2023-04-04T05:12:55.083Z,7.76
2023-04-04T05:15:23.338Z,8.00
2023-04-04T05:17:51.593Z,8.17
2023-04-04T05:20:19.917Z,8.03
2023-04-04T05:22:50.298Z,7.27
2023-04-04T05:25:21.265Z,7.41
2023-04-04T05:27:49.805Z,7.37
2023-04-04T05:30:18.086Z,7.86
2023-04-04T05:32:46.847Z,7.16
2023-04-04T05:35:15.214Z,8.11
2023-04-04T05:37:43.570Z,7.56
2023-04-04T05:40:12.832Z,7.95
2023-04-04T05:42:42.628Z,8.03
2023-04-04T05:45:11.956Z,8.02
2023-04-04T05:47:44.783Z,7.75
2023-04-04T05:50:13.093Z,7.77
2023-04-04T05:52:41.320Z,7.75
2023-04-04T05:55:10.013Z,7.38
2023-04-04T05:57:38.274Z,8.11
2023-04-04T06:00:10.450Z,8.19
2023-04-04T06:02:38.943Z,8.28
2023-04-04T06:05:08.502Z,8.20
2023-04-04T06:07:36.746Z,7.93
2023-04-04T06:10:05.638Z,8.11
2023-04-04T06:12:33.998Z,8.31
2023-04-04T06:15:02.259Z,8.97
2023-04-04T06:17:32.004Z,8.52
2023-04-04T06:20:00.358Z,8.65
2023-04-04T06:22:28.942Z,8.54
2023-04-04T06:24:57.309Z,8.67
2023-04-04T06:27:25.699Z,8.31
2023-04-04T06:29:54.030Z,8.81
2023-04-04T06:32:22.755Z,9.24
2023-04-04T06:34:52.530Z,8.33
2023-04-04T06:37:20.883Z,8.80
2023-04-04T06:39:49.304Z,8.64
2023-04-04T06:42:17.671Z,9.12
2023-04-04T06:44:46.045Z,8.73
2023-04-04T06:47:14.600Z,8.98
2023-04-04T06:49:42.899Z,8.93
2023-04-04T06:52:12.542Z,9.98
2023-04-04T06:54:40.861Z,9.11
2023-04-04T06:57:09.153Z,9.34
2023-04-04T06:59:37.516Z,9.57
2023-04-04T07:02:05.950Z,9.16
2023-04-04T07:04:35.352Z,9.95
2023-04-04T07:07:03.681Z,9.16
2023-04-04T07:09:33.440Z,8.69
2023-04-04T07:12:01.806Z,8.88
2023-04-04T07:14:30.055Z,8.56
2023-04-04T07:16:58.731Z,10.28
2023-04-04T07:19:28.848Z,10.62
2023-04-04T07:21:57.518Z,10.20
2023-04-04T07:24:25.860Z,10.60
2023-04-04T07:26:55.537Z,10.35
2023-04-04T07:29:24.028Z,9.85
2023-04-04T07:31:52.382Z,10.12
2023-04-04T07:34:21.270Z,9.58
2023-04-04T07:36:49.646Z,9.92
2023-04-04T07:39:18.098Z,10.08
2023-04-04T07:41:46.713Z,10.05
2023-04-04T07:44:16.458Z,10.33
2023-04-04T07:46:46.369Z,10.30
2023-04-04T07:49:16.242Z,10.21
2023-04-04T07:51:44.728Z,10.81
2023-04-04T07:54:13.046Z,10.33
2023-04-04T07:56:41.317Z,9.80
2023-04-04T07:59:09.680Z,10.07
2023-04-04T08:01:39.400Z,11.13
2023-04-04T08:04:07.767Z,10.64
2023-04-04T08:06:36.935Z,10.20
2023-04-04T08:09:05.334Z,10.89
2023-04-04T08:11:33.737Z,11.30
2023-04-04T08:14:02.094Z,10.64
2023-04-04T08:16:30.398Z,11.49
2023-04-04T08:19:00.744Z,12.45
2023-04-04T08:21:29.106Z,11.29
2023-04-04T08:23:57.426Z,11.76
2023-04-04T08:26:25.737Z,12.11
2023-04-04T08:28:54.578Z,11.78
2023-04-04T08:31:23.605Z,12.00
2023-04-04T08:33:52.485Z,12.16
2023-04-04T08:36:22.477Z,12.02
2023-04-04T08:38:50.828Z,11.75
2023-04-04T08:41:19.556Z,12.65
2023-04-04T08:43:54.337Z,11.31
2023-04-04T08:46:22.958Z,12.14
2023-04-04T08:48:52.616Z,12.28
2023-04-04T08:51:23.874Z,12.50
2023-04-04T08:53:52.365Z,12.41
2023-04-04T08:56:21.816Z,12.34
2023-04-04T08:58:50.193Z,13.35
2023-04-04T09:01:18.714Z,12.68
2023-04-04T09:03:47.175Z,11.96
2023-04-04T09:06:16.248Z,12.86
2023-04-04T09:08:46.458Z,12.19
2023-04-04T09:11:14.940Z,12.62
2023-04-04T09:13:44.670Z,11.94
2023-04-04T09:16:13.524Z,12.50
2023-04-04T09:18:41.990Z,11.85
2023-04-04T09:21:10.704Z,12.86
2023-04-04T09:23:39.707Z,12.31
2023-04-04T09:26:09.330Z,13.26
2023-04-04T09:28:37.666Z,14.02
2023-04-04T09:31:10.124Z,13.20
2023-04-04T09:33:39.834Z,13.41
2023-04-04T09:36:10.273Z,13.62
2023-04-04T09:38:38.969Z,13.09
2023-04-04T09:41:11.126Z,13.79
2023-04-04T09:43:40.841Z,15.56
2023-04-04T09:46:09.199Z,15.44
2023-04-04T09:48:37.747Z,14.59
2023-04-04T09:51:07.497Z,14.02
2023-04-04T09:53:37.814Z,13.05
2023-04-04T09:56:07.546Z,13.24
2023-04-04T09:58:40.449Z,13.16
2023-04-04T10:01:13.934Z,12.58
2023-04-04T10:03:42.388Z,12.69
2023-04-04T10:06:11.291Z,14.31
2023-04-04T10:08:41.513Z,12.68
2023-04-04T10:11:12.256Z,13.73
2023-04-04T10:13:44.613Z,13.10
2023-04-04T10:16:13.535Z,12.93
2023-04-04T10:18:41.884Z,12.41
2023-04-04T10:23:43.937Z,12.02
2023-04-04T10:26:13.227Z,12.81
2023-04-04T10:28:44.260Z,12.66
2023-04-04T10:31:18.582Z,13.55
2023-04-04T10:33:51.745Z,12.64
2023-04-04T10:36:23.075Z,12.59
2023-04-04T10:39:02.445Z,12.75
2023-04-04T10:41:33.446Z,12.17
2023-04-04T10:44:14.602Z,12.66
2023-04-04T10:46:43.465Z,13.32
2023-04-04T10:49:12.479Z,12.44
2023-04-04T10:51:52.972Z,13.00
2023-04-04T10:54:24.572Z,13.25
2023-04-04T10:56:53.487Z,12.72
2023-04-04T10:59:26.202Z,12.35
2023-04-04T11:01:58.546Z,12.57
2023-04-04T11:04:33.023Z,13.27
2023-04-04T11:07:15.067Z,13.23
2023-04-04T11:09:54.440Z,12.85
2023-04-04T11:12:24.393Z,13.52
2023-04-04T11:15:09.788Z,14.47
2023-04-04T11:18:22.252Z,14.61
2023-04-04T11:21:04.271Z,14.90
2023-04-04T11:24:00.989Z,14.42
2023-04-04T11:26:36.890Z,14.61
2023-04-04T11:29:08.099Z,15.94
2023-04-04T11:31:41.441Z,14.53
2023-04-04T11:34:11.466Z,13.94
2023-04-04T11:36:54.931Z,14.70
2023-04-04T11:39:26.837Z,16.12
2023-04-04T11:41:57.352Z,16.59
2023-04-04T11:44:27.676Z,15.30
2023-04-04T11:47:05.307Z,15.13
2023-04-04T11:49:36.354Z,14.70
2023-04-04T11:52:09.009Z,15.59
2023-04-04T11:54:38.810Z,16.06
2023-04-04T11:57:07.497Z,14.46
2023-04-04T11:59:41.246Z,16.38
2023-04-04T12:02:11.449Z,13.89
2023-04-04T12:04:43.483Z,15.83
2023-04-04T12:07:12.656Z,13.78
2023-04-04T12:09:42.223Z,13.37
2023-04-04T12:12:14.414Z,14.06
2023-04-04T12:14:43.211Z,14.76
2023-04-04T12:17:14.371Z,16.71
2023-04-04T12:19:44.432Z,15.34
2023-04-04T12:22:12.729Z,15.36
2023-04-04T12:24:41.353Z,16.23
2023-04-04T12:27:09.784Z,16.24
2023-04-04T12:29:38.233Z,16.09
2023-04-04T12:32:10.720Z,16.23
2023-04-04T12:34:47.037Z,14.90
2023-04-04T12:37:19.621Z,15.53
2023-04-04T12:39:50.008Z,14.41
2023-04-04T12:42:22.560Z,14.71
2023-04-04T12:44:51.950Z,15.26
2023-04-04T12:47:22.465Z,15.00
2023-04-04T12:49:54.774Z,14.30
2023-04-04T12:52:24.445Z,13.37
2023-04-04T12:55:06.798Z,13.63
2023-04-04T12:57:37.001Z,13.34
2023-04-04T13:00:08.925Z,13.23
2023-04-04T13:02:38.714Z,13.86
2023-04-04T13:05:11.131Z,14.09
2023-04-04T13:07:43.509Z,13.96
2023-04-04T13:10:14.648Z,14.62
2023-04-04T13:12:56.776Z,15.59
2023-04-04T13:15:25.546Z,15.87
2023-04-04T13:17:53.977Z,15.34
2023-04-04T13:20:25.787Z,15.43
2023-04-04T13:22:59.564Z,16.51
2023-04-04T13:25:27.999Z,15.17
2023-04-04T13:27:56.599Z,14.95
2023-04-04T13:30:25.158Z,14.50
2023-04-04T13:32:53.448Z,14.52
2023-04-04T13:35:23.217Z,14.44
2023-04-04T13:37:51.482Z,15.82
2023-04-04T13:40:20.282Z,15.05
2023-04-04T13:42:48.636Z,15.14
2023-04-04T13:45:16.961Z,14.18
2023-04-04T13:47:45.492Z,13.70
2023-04-04T13:50:13.896Z,14.52
2023-04-04T13:52:43.621Z,15.29
2023-04-04T13:55:12.064Z,15.05
2023-04-04T13:57:40.552Z,14.90
2023-04-04T14:00:10.276Z,14.86
2023-04-04T14:02:38.802Z,15.41
2023-04-04T14:05:08.202Z,14.52
2023-04-04T14:07:37.742Z,14.71
2023-04-04T14:10:11.241Z,14.84
2023-04-04T14:12:39.607Z,13.77
2023-04-04T14:15:09.144Z,12.70
2023-04-04T14:17:37.958Z,13.63
2023-04-04T14:20:07.949Z,13.50
2023-04-04T14:22:36.347Z,14.16
2023-04-04T14:25:05.256Z,14.20
2023-04-04T14:27:35.274Z,14.05
2023-04-04T14:30:04.024Z,13.36
2023-04-04T14:32:35.033Z,15.54
2023-04-04T14:35:03.616Z,15.39
2023-04-04T14:37:31.840Z,14.77
2023-04-04T14:40:00.357Z,14.76
2023-04-04T14:42:28.626Z,15.64
2023-04-04T14:44:58.650Z,16.00
2023-04-04T14:47:26.934Z,15.05
2023-04-04T14:49:55.998Z,14.65
2023-04-04T14:52:24.298Z,13.74
2023-04-04T14:54:52.550Z,13.84
2023-04-04T14:57:21.067Z,14.38
2023-04-04T14:59:49.335Z,13.67
2023-04-04T15:02:18.962Z,14.46
2023-04-04T15:04:47.350Z,14.24
2023-04-04T15:07:15.805Z,14.16
2023-04-04T15:09:44.086Z,14.42
2023-04-04T15:12:12.325Z,15.64
2023-04-04T15:14:40.738Z,16.32
2023-04-04T15:17:08.963Z,16.44
2023-04-04T15:19:38.589Z,16.65
2023-04-04T15:22:06.832Z,16.67
2023-04-04T15:24:35.131Z,16.18
2023-04-04T15:27:03.448Z,16.18
2023-04-04T15:29:31.724Z,14.93
2023-04-04T15:32:00.118Z,16.00
2023-04-04T15:34:28.361Z,15.23
2023-04-04T15:37:02.557Z,14.95
2023-04-04T15:39:33.016Z,14.74
2023-04-04T15:42:03.225Z,14.19
2023-04-04T15:44:31.818Z,13.52
2023-04-04T15:47:00.140Z,13.60
2023-04-04T15:49:28.947Z,14.32
2023-04-04T15:51:58.596Z,14.81
2023-04-04T15:54:28.905Z,13.42
2023-04-04T15:56:57.306Z,14.02
2023-04-04T15:59:25.753Z,13.95
2023-04-04T16:01:54.159Z,14.82
2023-04-04T16:04:22.437Z,14.96
2023-04-04T16:06:50.696Z,14.56
2023-04-04T16:09:21.462Z,15.24
2023-04-04T16:11:49.931Z,14.85
2023-04-04T16:14:18.215Z,15.70
2023-04-04T16:16:46.525Z,14.58
2023-04-04T16:19:16.953Z,15.31
2023-04-04T16:21:45.494Z,15.03
2023-04-04T16:24:14.105Z,14.11
2023-04-04T16:26:47.165Z,14.47
2023-04-04T16:29:15.741Z,14.51
2023-04-04T16:31:44.187Z,14.77
2023-04-04T16:34:12.517Z,14.80
2023-04-04T16:36:40.843Z,15.30
2023-04-04T16:39:09.138Z,14.85
2023-04-04T16:41:40.761Z,14.45
2023-04-04T16:44:12.324Z,14.13
2023-04-04T16:46:40.760Z,13.86
2023-04-04T16:49:09.881Z,14.47
2023-04-04T16:51:38.172Z,14.62
2023-04-04T16:54:06.520Z,14.37
2023-04-04T16:56:34.776Z,13.73
2023-04-04T16:59:03.147Z,13.60
2023-04-04T17:01:32.871Z,13.41
2023-04-04T17:04:01.400Z,13.45
2023-04-04T17:06:29.737Z,13.35
2023-04-04T17:08:58.109Z,13.90
2023-04-04T17:11:26.421Z,14.08
2023-04-04T17:13:54.774Z,13.99
2023-04-04T17:16:23.951Z,13.13
2023-04-04T17:18:54.337Z,13.17
2023-04-04T17:21:22.760Z,13.69
2023-04-04T17:23:50.983Z,14.19
2023-04-04T17:26:19.284Z,14.66
2023-04-04T17:28:47.539Z,14.94
2023-04-04T17:31:16.931Z,14.37
2023-04-04T17:33:45.647Z,14.40
2023-04-04T17:36:15.296Z,14.32
2023-04-04T17:38:43.553Z,14.46
2023-04-04T17:41:12.186Z,14.33
2023-04-04T17:43:40.445Z,14.12
2023-04-04T17:46:09.222Z,14.28
2023-04-04T17:48:37.866Z,14.15
2023-04-04T17:51:08.377Z,13.80
2023-04-04T17:53:37.982Z,13.88
2023-04-04T17:56:06.355Z,13.78
2023-04-04T17:58:34.597Z,13.55
2023-04-04T18:01:03.416Z,13.46
2023-04-04T18:03:32.186Z,13.57
2023-04-04T18:06:01.332Z,13.38
2023-04-04T18:08:29.607Z,13.35
2023-04-04T18:10:59.880Z,13.14
2023-04-04T18:13:28.176Z,13.27
2023-04-04T18:15:56.445Z,13.06
2023-04-04T18:18:24.871Z,13.09
2023-04-04T18:20:54.678Z,12.96
2023-04-04T18:23:24.197Z,12.90
2023-04-04T18:25:52.528Z,12.89
2023-04-04T18:28:22.131Z,12.87
2023-04-04T18:30:50.443Z,12.76
2023-04-04T18:33:19.447Z,12.39
2023-04-04T18:35:47.755Z,12.31
2023-04-04T18:38:16.179Z,12.33
2023-04-04T18:40:45.657Z,12.05
2023-04-04T18:43:14.193Z,12.23
2023-04-04T18:45:43.978Z,12.05
2023-04-04T18:48:12.835Z,12.02
2023-04-04T18:50:41.844Z,11.93
2023-04-04T18:53:10.457Z,11.90
2023-04-04T18:55:38.719Z,11.70
2023-04-04T18:58:07.019Z,11.83
2023-04-04T19:00:35.415Z,11.83
2023-04-04T19:03:07.648Z,11.81
2023-04-04T19:05:37.858Z,11.53
2023-04-04T19:08:08.376Z,11.67
2023-04-04T19:10:37.266Z,11.67
2023-04-04T19:13:05.689Z,11.54
2023-04-04T19:15:34.828Z,11.56
2023-04-04T19:18:03.313Z,11.54
2023-04-04T19:20:33.006Z,11.52
2023-04-04T19:23:01.320Z,11.49
2023-04-04T19:25:29.680Z,11.46
2023-04-04T19:27:57.957Z,11.43
2023-04-04T19:30:42.890Z,11.45
2023-04-04T19:33:12.244Z,11.39
2023-04-04T19:35:53.697Z,11.39
2023-04-04T19:38:24.678Z,11.38
2023-04-04T19:40:55.503Z,11.18
2023-04-04T19:43:24.552Z,10.78
2023-04-04T19:48:39.270Z,10.60
2023-04-04T19:51:11.044Z,10.86
2023-04-04T19:53:39.542Z,10.86
2023-04-04T19:56:09.676Z,10.88
2023-04-04T19:58:38.335Z,10.84
2023-04-04T20:01:07.809Z,10.78
2023-04-04T20:03:37.779Z,10.77
2023-04-04T20:06:11.618Z,10.66
2023-04-04T20:08:44.042Z,10.63
2023-04-04T20:11:13.523Z,10.63
2023-04-04T20:13:42.332Z,10.43
2023-04-04T20:16:14.448Z,10.59
2023-04-04T20:18:44.328Z,10.60
2023-04-04T20:21:15.776Z,10.57
2023-04-04T20:23:46.642Z,10.58
2023-04-04T20:26:47.170Z,10.56
2023-04-04T20:29:16.971Z,10.51
2023-04-04T20:31:46.793Z,10.51
2023-04-04T20:34:36.399Z,10.55
2023-04-04T20:37:08.346Z,10.51
2023-04-04T20:39:43.805Z,10.37
2023-04-04T20:42:35.291Z,10.33
2023-04-04T20:45:38.813Z,10.34
2023-04-04T20:48:07.909Z,10.32
2023-04-04T20:50:47.360Z,10.16
2023-04-04T20:53:20.538Z,9.56
2023-04-04T20:55:50.535Z,9.81
2023-04-04T20:58:27.868Z,9.92
2023-04-04T21:00:57.885Z,9.93
2023-04-04T21:03:31.956Z,9.86
2023-04-04T21:06:03.723Z,10.02
2023-04-04T21:08:42.994Z,10.06
2023-04-04T21:11:12.196Z,9.96
2023-04-04T21:13:43.068Z,10.07
2023-04-04T21:16:13.562Z,10.10
2023-04-04T21:18:41.928Z,10.16
2023-04-04T21:21:12.745Z,10.09
2023-04-04T21:23:53.666Z,10.04
2023-04-04T21:26:33.014Z,10.04
2023-04-04T21:29:03.454Z,10.16
2023-04-04T21:31:37.048Z,10.23
2023-04-04T21:34:10.243Z,10.32
2023-04-04T21:36:38.930Z,10.30
2023-04-04T21:39:11.927Z,10.31
2023-04-04T21:41:40.450Z,10.30
2023-04-04T21:44:10.477Z,10.31
2023-04-04T21:46:39.785Z,10.39
2023-04-04T21:49:09.488Z,10.34
2023-04-04T21:51:37.890Z,10.38
2023-04-04T21:54:07.836Z,10.22
2023-04-04T21:56:38.104Z,10.31
2023-04-04T21:59:08.326Z,10.31
2023-04-04T22:01:37.189Z,10.37
2023-04-04T22:04:05.666Z,9.58
2023-04-04T22:06:34.016Z,9.92
2023-04-04T22:09:03.110Z,10.05
2023-04-04T22:11:34.733Z,10.11
2023-04-04T22:14:06.995Z,10.05
2023-04-04T22:16:39.093Z,10.14
2023-04-04T22:19:10.998Z,10.06
2023-04-04T22:21:46.794Z,10.05
2023-04-04T22:24:15.601Z,10.08
2023-04-04T22:26:46.016Z,10.00
2023-04-04T22:29:14.279Z,9.98
2023-04-04T22:31:42.593Z,9.65
2023-04-04T22:34:13.283Z,9.68
2023-04-04T22:36:43.825Z,9.75
2023-04-04T22:39:15.869Z,9.79
2023-04-04T22:41:45.921Z,9.72
2023-04-04T22:44:14.232Z,9.74
2023-04-04T22:46:42.540Z,9.68
2023-04-04T22:49:11.017Z,9.59
2023-04-04T22:51:45.735Z,9.59
2023-04-04T22:54:15.582Z,9.58
2023-04-04T22:56:45.419Z,9.53
2023-04-04T22:59:13.920Z,9.41
2023-04-04T23:01:42.267Z,9.41
2023-04-04T23:04:10.791Z,9.34
2023-04-04T23:06:39.292Z,9.33
2023-04-04T23:09:08.806Z,9.25
2023-04-04T23:11:38.363Z,9.24
2023-04-04T23:14:09.607Z,9.27
2023-04-04T23:16:38.389Z,9.18
2023-04-04T23:19:06.704Z,9.19
2023-04-04T23:21:35.051Z,9.18
2023-04-04T23:24:03.567Z,9.17
2023-04-04T23:26:32.609Z,9.13
2023-04-04T23:29:01.307Z,9.07
2023-04-04T23:31:31.248Z,9.02
2023-04-04T23:33:59.848Z,8.80
2023-04-04T23:36:28.199Z,8.78
2023-04-04T23:38:56.619Z,8.68
2023-04-04T23:41:24.881Z,8.62
2023-04-04T23:43:54.402Z,8.63
2023-04-04T23:46:22.704Z,8.61
2023-04-04T23:48:52.378Z,8.64
2023-04-04T23:51:21.406Z,8.63
2023-04-04T23:53:49.711Z,8.68
2023-04-04T23:56:18.050Z,8.64
2023-04-04T23:58:46.391Z,8.33
